Jackson, NH

2:38 PM EDT on April 27, 2015 (GMT -0400)
Mount Washington Regional | | Change Station
CLOSE
Current Station
Airport
Location: Whitefield,
Elevation: 1073 ft
Nearby Weather Stations

Elev 1073 ft 44.37 °N, 71.54 °W | Updated 46 minutes ago

Rain
Rain
46 °F
Feels Like 41 °F
N
12
Wind Variable Wind from North

Today
High -- | Low -- °F
--% Chance of Precip.
Yesterday
High -- | Low -- °F
Precip. -- in
5:42 AM 7:43 PM
Waxing Gibbous, 67% visible
Pressure 29.65 in
Visibility 8.0 miles
Clouds Scattered Clouds 1700 ft
Mostly Cloudy 2300 ft
Overcast 3900 ft
Windchill 41 °F
Dew Point 39 °F
Humidity 76%
Rainfall 0.05 in
Snow Depth Not available.
UV 3 out of 12
Pollen 8.70 out of 12
Air Quality Not available.
Flu Activity Regional
METAR KHIE 271752Z AUTO 35010KT 8SM -RA SCT017 BKN023 OVC039 08/04 A2963 RMK AO2 RAB1656E11B41 SLP039 P0000 60003 T00780039 10083 20044 55000 TSNO

More Conditions Fewer Conditions

Pressure 29.65 in
Visibility 8.0 miles
Clouds Scattered Clouds 1700 ft
Mostly Cloudy 2300 ft
Overcast 3900 ft
Windchill 41 °F
Dew Point 39 °F
Humidity 76%
Rainfall 0.05 in
Snow Depth Not available.
UV 3 out of 12
Pollen 8.70 out of 12
Air Quality Not available.
Flu Activity Regional
METAR KHIE 271752Z AUTO 35010KT 8SM -RA SCT017 BKN023 OVC039 08/04 A2963 RMK AO2 RAB1656E11B41 SLP039 P0000 60003 T00780039 10083 20044 55000 TSNO

More Conditions Fewer Conditions

10-Day Weather Forecast

Almanac

Astronomy

Apr. 27, 2015 Rise Set
Actual Time
Civil Twilight
Nautical Twilight
Astronomical Twilight
Moon
Length of Visible Light
Length of Day
Tomorrow will be .
, % of the Moon is Illuminated

Today's Extremes

State Highs State Lows

Community

WunderPhotos

Upload Photos

1,817,395 photos uploaded!

WunderBlogs® & News

Nearby

Air Quality

  Air Quality AQ Index Pollutant
Not available.

Snow Depth

Station Depth Elevation

Earthquake Activity

City Distance Mag. Time & Date
Minimum magnitude displayed is 2.5.

Coastal Water Temperatures

Place Temperature

Stations

Nearby Weather Stations

Station Location Temp. Windchill Dew Point Humidity Wind Precip. Elev Updated Type